Time;durP1;ratioP1;P1;durP2;ratioP2;P2;SDS_P1;SDS_P2;PMS_P1;PMS_P2;Temp;Humidity;BMP_temperature;BMP_pressure;BME280_temperature;BME280_humidity;BME280_pressure;Samples;Min_cycle;Max_cycle;Signal;HPM_P1;HPM_P2
2021/07/26 00:00:32;;;;;;;4.38;3.08;;;19.80;87.50;;;;;;2068141;28;20085;-93
2021/07/26 00:01:32;;;;;;;4.45;3.25;;;19.80;87.60;;;;;;2057887;28;20588;-92
2021/07/26 00:02:34;;;;;;;4.60;3.28;;;19.80;87.60;;;;;;2062700;28;20065;-92
2021/07/26 00:03:35;;;;;;;4.32;3.05;;;19.80;87.60;;;;;;2070526;28;20038;-91
2021/07/26 00:04:38;;;;;;;4.10;2.92;;;19.80;87.60;;;;;;2064607;28;20068;-92
2021/07/26 00:05:39;;;;;;;5.13;3.30;;;19.80;87.60;;;;;;2066282;28;20034;-91
2021/07/26 00:06:39;;;;;;;4.30;3.15;;;19.80;87.60;;;;;;2070301;28;20052;-92
2021/07/26 00:07:40;;;;;;;4.13;3.00;;;19.80;87.60;;;;;;2065188;28;20484;-92
2021/07/26 00:08:41;;;;;;;4.70;3.28;;;19.80;87.60;;;;;;2075294;28;20037;-92
2021/07/26 00:09:42;;;;;;;4.88;3.40;;;19.80;87.60;;;;;;2077775;28;20160;-92
2021/07/26 00:10:42;;;;;;;4.85;3.50;;;19.80;87.60;;;;;;2066488;28;20125;-93
2021/07/26 00:11:43;;;;;;;4.97;3.45;;;19.80;87.70;;;;;;2077971;28;20042;-92
2021/07/26 00:12:44;;;;;;;5.15;3.55;;;19.80;87.60;;;;;;2074192;28;20030;-92
2021/07/26 00:13:44;;;;;;;5.05;3.15;;;19.70;87.60;;;;;;2060411;28;20038;-94
2021/07/26 00:14:45;;;;;;;4.18;3.17;;;19.70;87.60;;;;;;2058151;28;20030;-94
2021/07/26 00:15:46;;;;;;;4.32;3.17;;;19.70;87.60;;;;;;2078756;28;20037;-92
2021/07/26 00:16:46;;;;;;;4.60;3.35;;;19.70;87.70;;;;;;2074158;28;20022;-94
2021/07/26 00:17:47;;;;;;;5.72;3.70;;;19.70;87.70;;;;;;2066452;28;20117;-94
2021/07/26 00:18:48;;;;;;;5.28;3.72;;;19.70;87.70;;;;;;2070219;28;20480;-93
2021/07/26 00:19:48;;;;;;;4.82;3.50;;;19.70;87.70;;;;;;2066178;28;20034;-93
2021/07/26 00:20:49;;;;;;;5.10;3.70;;;19.70;87.70;;;;;;2062226;28;20513;-92
2021/07/26 00:21:50;;;;;;;5.00;3.40;;;19.70;87.70;;;;;;2065176;28;20030;-93
2021/07/26 00:22:51;;;;;;;5.35;3.67;;;19.70;87.70;;;;;;2073984;28;20017;-93
2021/07/26 00:23:52;;;;;;;5.43;3.60;;;19.70;87.70;;;;;;2070316;28;20038;-91
2021/07/26 00:24:53;;;;;;;5.63;3.45;;;19.70;87.70;;;;;;2068839;28;20034;-93
2021/07/26 00:25:54;;;;;;;5.50;3.50;;;19.70;87.80;;;;;;2074925;28;20037;-93
2021/07/26 00:26:55;;;;;;;4.43;3.13;;;19.70;87.80;;;;;;2091039;28;20368;-94
2021/07/26 00:27:56;;;;;;;5.28;3.63;;;19.60;87.80;;;;;;2086918;28;20036;-93
2021/07/26 00:28:56;;;;;;;5.07;3.72;;;19.70;88.60;;;;;;2074140;28;20033;-93
2021/07/26 00:29:57;;;;;;;5.20;3.50;;;19.60;87.90;;;;;;2078784;28;20026;-93
2021/07/26 00:30:58;;;;;;;4.65;3.30;;;19.60;87.90;;;;;;2057887;28;20022;-93
2021/07/26 00:31:59;;;;;;;5.03;3.45;;;19.60;87.90;;;;;;2073679;28;20026;-93
2021/07/26 00:33:00;;;;;;;5.78;3.67;;;19.60;88.00;;;;;;2075201;28;20036;-95
2021/07/26 00:34:22;;;;;;;5.43;3.58;;;19.60;88.00;;;;;;2080951;28;20045;-93
2021/07/26 00:35:23;;;;;;;4.95;3.33;;;19.60;88.00;;;;;;2093199;28;20063;-93
2021/07/26 00:36:25;;;;;;;4.80;3.33;;;19.60;88.00;;;;;;2088693;28;20033;-93
2021/07/26 00:37:28;;;;;;;5.40;3.80;;;19.60;88.00;;;;;;2092491;28;20043;-93
2021/07/26 00:38:29;;;;;;;5.72;3.50;;;19.50;88.00;;;;;;2081362;28;20132;-94
2021/07/26 00:39:32;;;;;;;5.30;3.78;;;19.50;88.00;;;;;;2082299;28;20029;-94
2021/07/26 00:40:33;;;;;;;5.13;3.40;;;19.50;88.00;;;;;;2090460;28;20415;-94
2021/07/26 00:41:35;;;;;;;5.78;3.50;;;19.50;88.00;;;;;;2072978;28;20038;-93
2021/07/26 00:42:36;;;;;;;4.47;3.22;;;19.50;88.10;;;;;;2074259;28;20480;-93
2021/07/26 00:43:37;;;;;;;4.68;3.45;;;19.50;88.10;;;;;;2081625;28;20401;-93
2021/07/26 00:44:38;;;;;;;4.50;3.20;;;19.50;88.10;;;;;;2082162;28;20072;-93
2021/07/26 00:45:38;;;;;;;4.90;3.58;;;19.50;88.10;;;;;;2081597;28;20026;-93
2021/07/26 00:46:40;;;;;;;5.53;3.20;;;19.50;88.20;;;;;;2081732;28;20033;-93
2021/07/26 00:47:40;;;;;;;4.85;3.47;;;19.50;88.20;;;;;;2074037;28;20022;-94
2021/07/26 00:48:41;;;;;;;5.40;3.83;;;19.50;88.30;;;;;;2072424;28;20049;-92
2021/07/26 00:49:42;;;;;;;5.20;3.70;;;19.50;88.40;;;;;;2072902;28;20041;-93
2021/07/26 00:50:43;;;;;;;5.40;3.80;;;19.50;88.30;;;;;;2065806;28;20042;-93
2021/07/26 00:51:46;;;;;;;4.55;3.25;;;19.40;88.30;;;;;;2057183;28;20547;-93
2021/07/26 00:52:47;;;;;;;4.63;3.17;;;19.40;88.30;;;;;;2066876;28;20030;-93
2021/07/26 00:53:48;;;;;;;5.20;3.50;;;19.40;88.20;;;;;;2081857;28;20063;-93
2021/07/26 00:54:49;;;;;;;5.00;3.55;;;19.40;88.30;;;;;;2073297;28;20025;-94
2021/07/26 00:55:50;;;;;;;5.43;3.70;;;19.40;88.20;;;;;;2074254;28;20032;-93
2021/07/26 00:56:52;;;;;;;5.25;3.47;;;19.40;88.20;;;;;;2082719;28;20467;-94
2021/07/26 00:57:53;;;;;;;6.60;3.78;;;19.40;88.30;;;;;;2089595;28;20024;-92
2021/07/26 00:58:54;;;;;;;4.47;3.05;;;19.40;88.30;;;;;;2078324;28;20026;-94
2021/07/26 01:00:01;;;;;;;4.68;3.40;;;19.40;88.30;;;;;;2079380;28;20505;-91
2021/07/26 01:01:03;;;;;;;4.65;3.22;;;19.40;88.40;;;;;;2089716;28;20116;-92
2021/07/26 01:02:04;;;;;;;5.55;3.38;;;19.40;88.40;;;;;;2073996;28;20084;-94
2021/07/26 01:03:04;;;;;;;4.15;3.22;;;19.40;88.40;;;;;;2073214;28;20581;-94
2021/07/26 01:04:05;;;;;;;4.70;3.45;;;19.30;88.40;;;;;;2073724;28;20045;-94
2021/07/26 01:05:06;;;;;;;4.82;3.42;;;19.30;88.20;;;;;;2073216;28;20484;-94
2021/07/26 01:06:07;;;;;;;5.35;3.30;;;19.30;88.50;;;;;;2058279;28;20039;-95
2021/07/26 01:07:08;;;;;;;4.95;3.45;;;19.30;88.40;;;;;;2072591;28;20054;-94
2021/07/26 01:08:09;;;;;;;4.75;3.45;;;19.30;88.50;;;;;;2087011;28;20021;-93
2021/07/26 01:09:10;;;;;;;4.03;3.00;;;19.30;89.10;;;;;;2082915;28;20030;-93
2021/07/26 01:10:11;;;;;;;4.72;3.33;;;19.20;88.60;;;;;;2073806;28;20022;-93
2021/07/26 01:11:11;;;;;;;4.80;3.50;;;19.20;88.60;;;;;;2072717;28;20044;-91
2021/07/26 01:12:12;;;;;;;3.70;2.88;;;19.20;88.60;;;;;;2063400;28;20022;-93
2021/07/26 01:13:13;;;;;;;5.07;3.10;;;19.30;88.60;;;;;;2065353;28;20517;-93
2021/07/26 01:14:17;;;;;;;4.60;3.10;;;19.30;88.60;;;;;;2065628;28;20096;-94
2021/07/26 01:15:18;;;;;;;4.95;3.28;;;19.30;88.60;;;;;;2074389;28;20068;-93
2021/07/26 01:16:18;;;;;;;4.10;2.90;;;19.30;88.60;;;;;;2073697;28;20034;-93
2021/07/26 01:17:25;;;;;;;4.88;3.00;;;19.20;88.60;;;;;;2076694;28;20080;-93
2021/07/26 01:18:36;;;;;;;4.45;3.13;;;19.20;88.60;;;;;;2075133;28;20101;-93
2021/07/26 01:19:36;;;;;;;4.43;3.35;;;19.20;88.60;;;;;;2075275;28;20049;-93
2021/07/26 01:20:37;;;;;;;4.57;3.30;;;19.20;88.60;;;;;;2076865;28;20025;-93
2021/07/26 01:21:38;;;;;;;4.47;3.10;;;19.20;88.50;;;;;;2082369;28;20025;-92
2021/07/26 01:22:38;;;;;;;4.70;3.28;;;19.20;88.60;;;;;;2081750;28;20029;-95
2021/07/26 01:23:41;;;;;;;4.68;3.00;;;19.20;88.60;;;;;;2076818;28;20053;-93
2021/07/26 01:24:42;;;;;;;4.13;3.25;;;19.10;88.70;;;;;;2073963;28;20029;-94
2021/07/26 01:25:42;;;;;;;5.88;3.05;;;19.10;88.80;;;;;;2072787;28;20055;-94
2021/07/26 01:26:43;;;;;;;5.22;3.17;;;19.10;88.80;;;;;;2073343;28;21489;-93
2021/07/26 01:27:44;;;;;;;4.18;2.90;;;19.10;88.90;;;;;;2081785;28;20076;-94
2021/07/26 01:28:48;;;;;;;4.30;2.80;;;19.10;88.90;;;;;;2076225;28;20026;-94
2021/07/26 01:29:48;;;;;;;3.85;2.90;;;19.10;88.90;;;;;;2073780;28;20369;-94
2021/07/26 01:30:50;;;;;;;4.07;2.90;;;19.10;88.90;;;;;;2081045;28;20067;-94
2021/07/26 01:31:50;;;;;;;5.00;3.00;;;19.10;88.90;;;;;;2090293;28;20051;-93
2021/07/26 01:32:51;;;;;;;5.03;3.15;;;19.10;88.90;;;;;;2081634;28;20021;-92
2021/07/26 01:33:52;;;;;;;4.88;3.20;;;19.10;88.90;;;;;;2072838;28;20477;-93
2021/07/26 01:34:53;;;;;;;3.80;2.88;;;19.10;88.90;;;;;;2081529;28;20030;-93
2021/07/26 01:35:54;;;;;;;4.38;3.10;;;19.10;88.90;;;;;;2077632;28;20030;-93
2021/07/26 01:36:54;;;;;;;4.10;2.85;;;19.10;89.00;;;;;;2072680;28;20018;-92
2021/07/26 01:37:55;;;;;;;3.95;3.08;;;19.10;89.00;;;;;;2071281;28;20049;-92
2021/07/26 01:38:56;;;;;;;4.50;3.17;;;19.10;89.00;;;;;;2082779;28;20048;-93
2021/07/26 01:39:57;;;;;;;3.78;3.00;;;19.10;89.00;;;;;;2073333;28;20030;-94
2021/07/26 01:41:04;;;;;;;4.78;2.92;;;19.00;88.90;;;;;;2056980;28;20535;-94
2021/07/26 01:42:05;;;;;;;3.67;2.80;;;19.00;88.90;;;;;;2076050;28;20052;-92
2021/07/26 01:43:10;;;;;;;5.10;3.58;;;19.00;88.90;;;;;;2081604;28;20033;-93
2021/07/26 01:44:11;;;;;;;4.78;3.03;;;19.00;88.90;;;;;;2081595;28;20044;-94
2021/07/26 01:45:12;;;;;;;4.35;3.10;;;19.00;89.00;;;;;;2081422;28;20129;-93
2021/07/26 01:46:29;;;;;;;4.90;3.50;;;19.00;89.00;;;;;;2073115;28;20057;-94
2021/07/26 01:47:30;;;;;;;4.57;2.88;;;18.90;88.90;;;;;;2088253;28;20064;-93
2021/07/26 01:48:52;;;;;;;4.47;2.72;;;19.00;89.00;;;;;;2085950;28;20036;-93
2021/07/26 01:50:03;;;;;;;4.00;2.90;;;19.00;89.20;;;;;;2077065;28;20037;-93
2021/07/26 01:51:12;;;;;;;4.32;2.85;;;19.00;89.10;;;;;;2082354;28;20025;-92
2021/07/26 01:52:13;;;;;;;4.68;3.03;;;19.00;89.00;;;;;;2092932;28;20009;-89
2021/07/26 01:53:14;;;;;;;4.65;3.22;;;19.00;89.00;;;;;;2083202;28;20074;-94
2021/07/26 01:54:16;;;;;;;4.57;3.30;;;19.00;89.00;;;;;;2083212;28;20030;-89
2021/07/26 01:55:18;;;;;;;4.18;2.95;;;19.00;89.00;;;;;;2092558;28;20113;-88
2021/07/26 01:56:19;;;;;;;4.35;3.10;;;19.00;89.00;;;;;;2091442;28;20013;-92
2021/07/26 01:57:20;;;;;;;4.63;2.97;;;19.00;89.00;;;;;;2091715;28;20014;-93
2021/07/26 01:58:20;;;;;;;4.38;3.15;;;18.90;88.90;;;;;;2068034;28;20026;-94
2021/07/26 01:59:21;;;;;;;4.22;2.90;;;18.90;88.90;;;;;;2062663;28;20034;-93
2021/07/26 02:00:22;;;;;;;5.07;3.42;;;18.90;89.00;;;;;;2064324;28;20422;-93
2021/07/26 02:01:22;;;;;;;4.18;3.00;;;18.90;89.00;;;;;;2073411;28;20080;-92
2021/07/26 02:02:24;;;;;;;4.65;2.95;;;19.00;89.10;;;;;;2069391;28;20061;-93
2021/07/26 02:03:25;;;;;;;5.32;3.30;;;19.00;89.10;;;;;;2080200;28;20010;-92
2021/07/26 02:04:25;;;;;;;5.18;2.90;;;19.00;89.10;;;;;;2082687;28;20044;-94
2021/07/26 02:05:26;;;;;;;4.57;2.80;;;18.90;89.00;;;;;;2072636;28;20373;-93
2021/07/26 02:06:27;;;;;;;4.68;3.35;;;18.90;89.00;;;;;;2072562;28;20088;-95
2021/07/26 02:07:28;;;;;;;4.75;3.30;;;18.90;89.00;;;;;;2080812;28;20510;-94
2021/07/26 02:08:29;;;;;;;4.60;3.30;;;18.90;89.00;;;;;;2080990;28;20547;-94
2021/07/26 02:09:29;;;;;;;4.35;2.85;;;18.90;89.00;;;;;;2081497;28;20431;-94
2021/07/26 02:10:30;;;;;;;4.38;3.00;;;18.90;89.10;;;;;;2079626;28;20068;-93
2021/07/26 02:11:31;;;;;;;5.45;3.60;;;18.90;89.20;;;;;;2060290;28;20089;-93
2021/07/26 02:12:32;;;;;;;4.15;3.00;;;18.90;89.20;;;;;;2079748;28;20439;-94
2021/07/26 02:13:35;;;;;;;4.20;2.97;;;18.90;89.20;;;;;;2080348;28;20026;-93
2021/07/26 02:14:36;;;;;;;4.40;3.00;;;18.90;89.20;;;;;;2074646;28;20030;-93
2021/07/26 02:15:37;;;;;;;4.00;2.75;;;18.90;89.20;;;;;;2080330;28;20092;-93
2021/07/26 02:16:39;;;;;;;5.15;3.30;;;18.90;89.10;;;;;;2073775;28;20030;-93
2021/07/26 02:17:40;;;;;;;4.60;3.10;;;18.90;89.10;;;;;;2082521;28;20026;-92
2021/07/26 02:18:40;;;;;;;4.03;3.03;;;18.90;89.60;;;;;;2078509;28;20018;-93
2021/07/26 02:19:41;;;;;;;4.53;3.20;;;18.90;89.00;;;;;;2076921;28;20053;-93
2021/07/26 02:20:42;;;;;;;5.28;2.92;;;18.90;89.00;;;;;;2075529;28;20029;-94
2021/07/26 02:21:42;;;;;;;4.05;2.83;;;19.00;89.10;;;;;;2080401;28;20049;-95
2021/07/26 02:22:44;;;;;;;4.55;3.22;;;18.90;89.00;;;;;;2060414;28;20043;-94
2021/07/26 02:23:45;;;;;;;5.57;2.72;;;18.90;89.00;;;;;;2073851;28;20042;-94
2021/07/26 02:24:45;;;;;;;3.85;2.80;;;18.90;89.10;;;;;;2082276;28;20471;-93
2021/07/26 02:25:46;;;;;;;3.95;2.88;;;18.90;89.10;;;;;;2065008;28;20034;-93
2021/07/26 02:26:47;;;;;;;4.35;3.10;;;18.90;89.10;;;;;;2077908;28;20018;-93
2021/07/26 02:27:47;;;;;;;4.30;3.17;;;18.90;89.10;;;;;;2073694;28;20092;-93
2021/07/26 02:28:48;;;;;;;4.57;3.22;;;18.90;89.00;;;;;;2081207;28;20037;-94
2021/07/26 02:29:49;;;;;;;5.40;3.08;;;19.00;89.10;;;;;;2073710;28;20652;-93
2021/07/26 02:30:50;;;;;;;4.85;3.13;;;18.90;89.00;;;;;;2072075;28;20119;-93
2021/07/26 02:31:51;;;;;;;5.20;3.35;;;19.00;89.00;;;;;;2064976;28;20058;-94
2021/07/26 02:32:51;;;;;;;5.53;3.13;;;19.00;88.90;;;;;;2066202;28;20034;-93
2021/07/26 02:33:52;;;;;;;4.43;3.13;;;18.90;88.80;;;;;;2091700;28;20030;-94
2021/07/26 02:34:53;;;;;;;4.40;3.28;;;19.00;88.90;;;;;;2075750;28;20033;-93
2021/07/26 02:35:53;;;;;;;3.97;2.95;;;19.00;88.90;;;;;;2070939;28;20026;-93
2021/07/26 02:36:54;;;;;;;4.90;3.20;;;19.00;88.80;;;;;;2063921;28;20019;-93
2021/07/26 02:37:58;;;;;;;3.78;2.88;;;19.00;88.80;;;;;;2063811;28;20039;-93
2021/07/26 02:38:58;;;;;;;3.95;2.80;;;19.00;88.80;;;;;;2073877;28;20026;-94
2021/07/26 02:40:00;;;;;;;5.15;3.00;;;19.00;88.70;;;;;;2065509;28;20547;-93
2021/07/26 02:41:14;;;;;;;4.57;3.35;;;19.00;88.70;;;;;;2073115;28;20080;-93
2021/07/26 02:42:15;;;;;;;4.40;3.20;;;19.00;88.70;;;;;;2074644;28;20027;-94
2021/07/26 02:43:15;;;;;;;4.43;3.17;;;19.00;88.70;;;;;;2086791;28;20045;-93
2021/07/26 02:44:16;;;;;;;5.22;3.22;;;19.00;88.70;;;;;;2088466;28;20046;-93
2021/07/26 02:45:17;;;;;;;4.82;3.25;;;18.90;88.70;;;;;;2081342;28;21641;-92
2021/07/26 02:46:18;;;;;;;4.00;2.78;;;19.00;88.80;;;;;;2064339;28;20094;-92
2021/07/26 02:47:18;;;;;;;4.10;2.75;;;18.90;88.80;;;;;;2073768;28;20475;-93
2021/07/26 02:48:19;;;;;;;3.88;2.83;;;19.00;89.60;;;;;;2081420;28;20038;-92
2021/07/26 02:49:20;;;;;;;4.38;3.13;;;18.90;89.50;;;;;;2063479;28;20034;-94
2021/07/26 02:50:21;;;;;;;4.50;2.90;;;18.90;89.00;;;;;;2073580;28;20030;-94
2021/07/26 02:51:22;;;;;;;4.25;3.08;;;18.90;89.00;;;;;;2081229;28;20021;-93
2021/07/26 02:52:22;;;;;;;4.97;3.40;;;18.90;89.00;;;;;;2088051;28;20033;-93
2021/07/26 02:53:23;;;;;;;5.50;3.05;;;18.90;89.00;;;;;;2072818;28;20026;-92
2021/07/26 02:54:24;;;;;;;4.68;3.20;;;18.90;89.00;;;;;;2064940;28;20046;-92
2021/07/26 02:55:24;;;;;;;3.63;2.70;;;18.90;89.00;;;;;;2086246;28;20071;-92
2021/07/26 02:56:25;;;;;;;4.30;3.00;;;18.90;89.00;;;;;;2075267;28;20025;-91
2021/07/26 02:57:26;;;;;;;4.72;3.17;;;18.90;89.60;;;;;;2066982;28;20078;-93
2021/07/26 02:58:26;;;;;;;4.43;2.83;;;18.90;89.10;;;;;;2070311;28;20049;-93
2021/07/26 02:59:27;;;;;;;3.50;2.83;;;18.90;89.10;;;;;;2091507;28;20014;-94
2021/07/26 03:00:28;;;;;;;5.18;3.35;;;18.90;89.10;;;;;;2085912;28;20036;-93
2021/07/26 03:01:32;;;;;;;4.30;3.10;;;18.90;89.00;;;;;;2083443;28;20022;-94
2021/07/26 03:02:36;;;;;;;4.03;3.00;;;18.90;89.00;;;;;;2084070;28;20035;-93
2021/07/26 03:03:38;;;;;;;3.97;2.83;;;18.90;89.00;;;;;;2071643;28;20065;-92
2021/07/26 03:04:39;;;;;;;5.53;3.30;;;18.90;89.00;;;;;;2067082;28;20065;-93
2021/07/26 03:05:39;;;;;;;4.82;3.20;;;18.90;88.90;;;;;;2069849;28;20026;-94
2021/07/26 03:06:40;;;;;;;4.03;2.95;;;18.90;88.90;;;;;;2069671;28;20038;-93
2021/07/26 03:07:41;;;;;;;4.43;2.75;;;18.90;89.00;;;;;;2073439;28;20062;-94
2021/07/26 03:08:41;;;;;;;5.60;3.15;;;18.90;89.00;;;;;;2081080;28;20025;-93
2021/07/26 03:09:42;;;;;;;4.00;2.80;;;18.80;89.00;;;;;;2075815;28;20444;-95
2021/07/26 03:10:43;;;;;;;4.85;3.33;;;18.90;89.00;;;;;;2085102;28;20029;-93
2021/07/26 03:11:43;;;;;;;5.55;3.20;;;18.80;89.00;;;;;;2085677;28;20415;-93
2021/07/26 03:12:44;;;;;;;4.55;3.28;;;18.80;89.00;;;;;;2078642;28;20056;-93
2021/07/26 03:13:45;;;;;;;5.15;3.22;;;18.80;88.90;;;;;;2071992;28;20572;-93
2021/07/26 03:14:46;;;;;;;5.03;3.35;;;18.80;88.90;;;;;;2079646;28;20025;-92
2021/07/26 03:15:46;;;;;;;4.38;3.08;;;18.90;88.90;;;;;;2077624;28;20116;-94
2021/07/26 03:16:47;;;;;;;4.57;3.22;;;18.80;88.90;;;;;;2074501;28;20018;-94
2021/07/26 03:17:48;;;;;;;4.72;3.22;;;18.80;88.90;;;;;;2072938;28;20097;-94
2021/07/26 03:18:49;;;;;;;4.43;3.10;;;18.80;88.80;;;;;;2074487;28;20109;-93
2021/07/26 03:19:49;;;;;;;4.93;3.40;;;18.80;88.80;;;;;;2073581;28;20034;-93
2021/07/26 03:20:50;;;;;;;4.95;3.35;;;18.80;88.80;;;;;;2066547;28;20030;-94
2021/07/26 03:22:32;;;;;;;4.85;3.42;;;18.80;88.80;;;;;;2066680;28;20065;-92
2021/07/26 03:23:33;;;;;;;4.47;3.00;;;18.80;88.70;;;;;;2093734;28;20027;-93
2021/07/26 03:24:34;;;;;;;5.25;3.65;;;18.80;88.70;;;;;;2074801;28;20037;-93
2021/07/26 03:25:40;;;;;;;5.72;2.90;;;18.80;88.70;;;;;;2077373;28;20022;-93
2021/07/26 03:26:40;;;;;;;4.38;2.75;;;18.80;88.70;;;;;;2090811;28;20021;-93
2021/07/26 03:27:41;;;;;;;4.40;2.90;;;18.80;88.70;;;;;;2088541;28;20080;-92
2021/07/26 03:28:42;;;;;;;4.68;3.40;;;18.80;88.70;;;;;;2087438;28;20033;-93
2021/07/26 03:29:42;;;;;;;4.75;3.08;;;18.80;88.70;;;;;;2069784;28;20492;-93
2021/07/26 03:30:43;;;;;;;4.25;2.97;;;18.80;88.80;;;;;;2066115;28;20520;-93
2021/07/26 03:31:44;;;;;;;4.10;2.75;;;18.80;88.70;;;;;;2074087;28;20018;-94
2021/07/26 03:32:45;;;;;;;4.55;3.17;;;18.80;88.70;;;;;;2088582;28;20033;-94
2021/07/26 03:33:46;;;;;;;3.95;2.85;;;18.80;88.70;;;;;;2089892;28;20408;-94
2021/07/26 03:34:46;;;;;;;3.97;2.97;;;18.80;88.70;;;;;;2081385;28;20148;-93
2021/07/26 03:35:47;;;;;;;4.63;3.08;;;18.70;88.70;;;;;;2072190;28;20033;-93
2021/07/26 03:36:47;;;;;;;5.43;3.38;;;18.70;88.70;;;;;;2073370;28;20026;-93
2021/07/26 03:37:49;;;;;;;5.55;3.25;;;18.70;88.70;;;;;;2073748;28;20404;-92
2021/07/26 03:38:50;;;;;;;4.90;3.25;;;18.70;88.70;;;;;;2072982;28;20026;-93
2021/07/26 03:39:50;;;;;;;4.65;2.65;;;18.70;88.70;;;;;;2074184;28;20026;-94
2021/07/26 03:40:52;;;;;;;3.85;2.90;;;18.70;88.70;;;;;;2065859;28;20046;-93
2021/07/26 03:41:59;;;;;;;4.50;2.92;;;18.70;88.80;;;;;;2073988;28;20053;-93
2021/07/26 03:43:01;;;;;;;4.82;3.10;;;18.70;88.80;;;;;;2082513;28;20041;-93
2021/07/26 03:44:02;;;;;;;4.68;3.08;;;18.70;88.80;;;;;;2082904;28;20095;-93
2021/07/26 03:45:08;;;;;;;4.15;3.10;;;18.70;88.80;;;;;;2082443;28;20256;-95
2021/07/26 03:46:09;;;;;;;4.45;3.00;;;18.70;88.80;;;;;;2074894;28;20030;-93
2021/07/26 03:47:09;;;;;;;4.53;3.00;;;18.70;88.70;;;;;;2065805;28;20034;-94
2021/07/26 03:48:11;;;;;;;4.93;3.00;;;18.70;88.70;;;;;;2066057;28;20033;-93
2021/07/26 03:49:11;;;;;;;4.18;2.90;;;18.70;88.70;;;;;;2065783;28;20026;-95
2021/07/26 03:50:16;;;;;;;5.13;3.30;;;18.70;88.70;;;;;;2066444;28;20066;-93
2021/07/26 03:51:16;;;;;;;5.78;3.13;;;18.70;88.70;;;;;;2075438;28;20022;-94
2021/07/26 03:52:18;;;;;;;4.53;3.05;;;18.70;88.70;;;;;;2065812;28;20046;-93
2021/07/26 03:53:19;;;;;;;4.47;2.85;;;18.70;88.70;;;;;;2065451;28;20023;-93
2021/07/26 03:54:20;;;;;;;4.95;3.00;;;18.70;88.70;;;;;;2074782;28;20553;-93
2021/07/26 03:55:26;;;;;;;4.68;2.70;;;18.60;88.70;;;;;;2075761;28;20073;-93
2021/07/26 03:56:26;;;;;;;4.25;3.08;;;18.60;88.70;;;;;;2086230;28;20459;-92
2021/07/26 03:57:27;;;;;;;4.78;2.83;;;18.70;88.70;;;;;;2068308;28;20042;-93
2021/07/26 03:58:27;;;;;;;4.50;2.80;;;18.60;88.70;;;;;;2065831;28;20049;-93
2021/07/26 03:59:28;;;;;;;5.00;3.15;;;18.70;88.80;;;;;;2074704;28;20037;-93
2021/07/26 04:00:30;;;;;;;4.93;2.70;;;18.60;88.70;;;;;;2064793;28;20473;-94
2021/07/26 04:01:31;;;;;;;4.15;2.90;;;18.60;88.70;;;;;;2066983;28;20173;-94
2021/07/26 04:02:32;;;;;;;4.78;2.92;;;18.70;88.80;;;;;;2065890;28;20481;-93
2021/07/26 04:03:32;;;;;;;5.47;2.65;;;18.60;88.70;;;;;;2072027;28;20071;-93
2021/07/26 04:04:33;;;;;;;3.35;2.55;;;18.60;88.80;;;;;;2064660;28;20128;-92
2021/07/26 04:05:37;;;;;;;3.80;2.75;;;18.60;88.90;;;;;;2065733;28;20054;-94
2021/07/26 04:06:40;;;;;;;4.22;2.70;;;18.60;88.90;;;;;;2071024;28;20046;-92
2021/07/26 04:07:44;;;;;;;5.68;2.58;;;18.60;88.90;;;;;;2064655;28;20117;-95
2021/07/26 04:08:48;;;;;;;3.83;2.50;;;18.60;89.00;;;;;;2054226;28;20064;-93
2021/07/26 04:09:54;;;;;;;4.25;2.83;;;18.60;88.90;;;;;;2057860;28;20039;-93
2021/07/26 04:11:09;;;;;;;4.30;2.78;;;18.60;88.90;;;;;;2054381;28;20031;-93
2021/07/26 04:12:14;;;;;;;4.80;2.83;;;18.60;88.90;;;;;;2074176;28;20049;-94
2021/07/26 04:13:15;;;;;;;4.65;2.95;;;18.60;88.90;;;;;;2065126;28;20026;-92
2021/07/26 04:14:18;;;;;;;4.18;2.63;;;18.60;88.90;;;;;;2050513;28;20023;-93
2021/07/26 04:15:19;;;;;;;3.97;2.85;;;18.50;88.90;;;;;;2050027;28;20496;-93
2021/07/26 04:16:19;;;;;;;4.40;3.10;;;18.60;88.90;;;;;;2057982;28;20027;-94
2021/07/26 04:17:20;;;;;;;3.92;2.60;;;18.60;88.90;;;;;;2058389;28;20122;-93
2021/07/26 04:18:21;;;;;;;3.88;2.90;;;18.50;88.90;;;;;;2065367;28;20026;-93
2021/07/26 04:19:21;;;;;;;4.15;2.70;;;18.50;88.90;;;;;;2065455;28;20177;-93
2021/07/26 04:20:22;;;;;;;4.28;2.70;;;18.50;88.90;;;;;;2064313;28;20023;-94
2021/07/26 04:21:33;;;;;;;3.58;2.42;;;18.50;88.90;;;;;;2069386;28;20057;-93
2021/07/26 04:22:34;;;;;;;4.63;2.88;;;18.50;88.90;;;;;;2066721;28;20531;-94
2021/07/26 04:23:35;;;;;;;4.30;2.80;;;18.50;89.00;;;;;;2068837;28;20030;-95
2021/07/26 04:24:36;;;;;;;4.45;2.78;;;18.50;89.00;;;;;;2065862;28;20030;-93
2021/07/26 04:25:37;;;;;;;5.93;2.65;;;18.50;89.00;;;;;;2058089;28;20046;-94
2021/07/26 04:26:37;;;;;;;4.00;2.78;;;18.50;89.00;;;;;;2065983;28;20030;-92
2021/07/26 04:27:38;;;;;;;4.00;2.70;;;18.50;89.00;;;;;;2057908;28;20034;-94
2021/07/26 04:28:39;;;;;;;4.57;2.85;;;18.40;88.90;;;;;;2045355;28;20027;-94
2021/07/26 04:29:39;;;;;;;3.97;2.67;;;18.50;89.00;;;;;;2064728;28;20022;-93
2021/07/26 04:30:40;;;;;;;3.22;2.55;;;18.50;89.00;;;;;;2057375;28;20034;-92
2021/07/26 04:31:42;;;;;;;4.35;2.97;;;18.50;89.00;;;;;;2059070;28;20062;-93
2021/07/26 04:32:45;;;;;;;3.90;2.60;;;18.50;89.00;;;;;;2067720;28;20033;-92
2021/07/26 04:33:45;;;;;;;4.85;2.60;;;18.50;88.90;;;;;;2070478;28;20045;-93
2021/07/26 04:34:46;;;;;;;4.22;3.00;;;18.50;88.90;;;;;;2061714;28;20142;-94
2021/07/26 04:35:47;;;;;;;3.63;2.45;;;18.50;88.90;;;;;;2056867;28;20038;-92
2021/07/26 04:36:47;;;;;;;3.65;2.50;;;18.50;88.90;;;;;;2059035;28;20057;-93
2021/07/26 04:37:48;;;;;;;5.60;2.70;;;18.50;88.90;;;;;;2059917;28;20031;-92
2021/07/26 04:38:49;;;;;;;4.40;2.70;;;18.50;88.90;;;;;;2058680;28;20058;-90
2021/07/26 04:39:49;;;;;;;3.88;2.80;;;18.50;88.90;;;;;;2072416;28;20026;-87
2021/07/26 04:40:50;;;;;;;3.72;2.50;;;18.50;88.90;;;;;;2083460;28;20026;-93
2021/07/26 04:41:50;;;;;;;4.43;2.63;;;18.50;88.90;;;;;;2068365;28;20023;-90
2021/07/26 04:42:53;;;;;;;4.20;2.55;;;18.50;88.90;;;;;;2074401;28;20046;-91
2021/07/26 04:43:55;;;;;;;4.47;2.95;;;18.50;88.90;;;;;;2073690;28;20030;-90
2021/07/26 04:44:56;;;;;;;4.35;2.97;;;18.50;88.90;;;;;;2060110;28;20027;-89
2021/07/26 04:45:58;;;;;;;4.22;2.50;;;18.50;88.90;;;;;;2063325;28;20063;-93
2021/07/26 04:46:59;;;;;;;4.22;2.70;;;18.50;88.90;;;;;;2056404;28;20034;-93
2021/07/26 04:48:00;;;;;;;3.40;2.53;;;18.50;89.00;;;;;;2038476;28;20085;-94
2021/07/26 04:49:00;;;;;;;3.65;2.50;;;18.50;88.90;;;;;;2047927;28;20549;-96
2021/07/26 04:50:01;;;;;;;4.18;2.72;;;18.50;88.90;;;;;;2052394;28;20511;-94
2021/07/26 04:51:02;;;;;;;3.47;2.53;;;18.60;89.50;;;;;;2049553;28;20099;-93
2021/07/26 04:52:03;;;;;;;3.83;2.42;;;18.50;88.80;;;;;;2041848;28;20046;-94
2021/07/26 04:53:04;;;;;;;4.80;2.70;;;18.50;88.80;;;;;;2049796;28;20027;-94
2021/07/26 04:54:04;;;;;;;3.78;2.70;;;18.60;88.90;;;;;;2056927;28;20071;-93
2021/07/26 04:55:06;;;;;;;4.28;2.97;;;18.60;88.80;;;;;;2050016;28;20123;-94
2021/07/26 04:56:07;;;;;;;3.97;2.35;;;18.60;88.80;;;;;;2057239;28;20042;-94
2021/07/26 04:57:07;;;;;;;4.03;2.85;;;18.60;88.80;;;;;;2058749;28;20034;-94
2021/07/26 04:58:08;;;;;;;3.58;2.50;;;18.60;88.80;;;;;;2065835;28;20066;-94
2021/07/26 04:59:09;;;;;;;3.20;2.38;;;18.60;88.70;;;;;;2048979;28;20038;-93
2021/07/26 05:00:10;;;;;;;3.72;2.58;;;18.70;88.60;;;;;;2053780;28;20124;-94
2021/07/26 05:01:10;;;;;;;4.07;2.50;;;18.70;88.60;;;;;;2057000;28;20086;-93
2021/07/26 05:02:12;;;;;;;4.50;2.53;;;18.70;88.50;;;;;;2057221;28;20521;-93
2021/07/26 05:03:12;;;;;;;4.82;2.15;;;18.70;88.50;;;;;;2065645;28;20038;-94
2021/07/26 05:04:13;;;;;;;3.55;2.53;;;18.70;88.50;;;;;;2057454;28;20107;-94
2021/07/26 05:05:14;;;;;;;3.33;2.28;;;18.70;88.40;;;;;;2041646;29;20059;-93
2021/07/26 05:06:14;;;;;;;5.55;2.60;;;18.80;88.40;;;;;;2049357;28;20058;-93
2021/07/26 05:07:15;;;;;;;3.50;2.60;;;18.80;88.40;;;;;;2050493;28;20067;-93
2021/07/26 05:08:16;;;;;;;4.43;2.65;;;18.80;88.30;;;;;;2049647;28;20035;-94
2021/07/26 05:09:17;;;;;;;3.95;2.70;;;18.80;88.20;;;;;;2060107;28;20062;-93
2021/07/26 05:10:18;;;;;;;4.97;2.60;;;18.90;88.20;;;;;;2049345;28;20028;-94
2021/07/26 05:11:22;;;;;;;4.00;2.65;;;18.90;88.10;;;;;;2057141;28;20022;-94
2021/07/26 05:12:23;;;;;;;4.28;2.40;;;18.90;88.10;;;;;;2067453;28;20030;-94
2021/07/26 05:13:24;;;;;;;3.38;2.50;;;18.90;88.10;;;;;;2065487;28;20082;-92
2021/07/26 05:14:24;;;;;;;3.85;2.42;;;18.90;88.10;;;;;;2066227;28;20022;-92
2021/07/26 05:15:25;;;;;;;3.80;2.58;;;18.90;88.10;;;;;;2067184;28;20030;-93
2021/07/26 05:16:26;;;;;;;4.00;2.33;;;18.90;88.10;;;;;;2066200;28;20022;-94
2021/07/26 05:17:27;;;;;;;4.43;2.58;;;18.90;88.00;;;;;;2065795;28;20030;-93
2021/07/26 05:18:27;;;;;;;3.38;2.17;;;18.90;88.00;;;;;;2067841;28;20073;-90
2021/07/26 05:19:28;;;;;;;3.67;2.47;;;19.00;88.00;;;;;;2074482;28;20069;-94
2021/07/26 05:20:29;;;;;;;4.35;2.35;;;19.00;87.90;;;;;;2076022;28;20046;-93
2021/07/26 05:21:29;;;;;;;3.88;2.55;;;19.00;87.80;;;;;;2082789;28;20030;-89